sensor_id;sensor_type;location;lat;lon;timestamp;temperature;humidity
2977;DHT22;1498;51.500;7.440;2022-11-20T00:00:07;1.00;99.90
2977;DHT22;1498;51.500;7.440;2022-11-20T00:02:33;1.00;99.90
2977;DHT22;1498;51.500;7.440;2022-11-20T00:04:58;1.00;99.90
2977;DHT22;1498;51.500;7.440;2022-11-20T00:07:24;0.90;99.90
2977;DHT22;1498;51.500;7.440;2022-11-20T00:09:49;0.90;99.90
2977;DHT22;1498;51.500;7.440;2022-11-20T00:12:15;0.90;99.90
2977;DHT22;1498;51.500;7.440;2022-11-20T00:14:41;0.90;99.90
2977;DHT22;1498;51.500;7.440;2022-11-20T00:17:06;1.00;99.90
2977;DHT22;1498;51.500;7.440;2022-11-20T00:19:32;1.00;99.90
2977;DHT22;1498;51.500;7.440;2022-11-20T00:21:58;0.90;99.90
2977;DHT22;1498;51.500;7.440;2022-11-20T00:24:23;0.90;99.90
2977;DHT22;1498;51.500;7.440;2022-11-20T00:26:49;1.00;99.90
2977;DHT22;1498;51.500;7.440;2022-11-20T00:29:14;1.00;99.90
2977;DHT22;1498;51.500;7.440;2022-11-20T00:31:40;1.00;99.90
2977;DHT22;1498;51.500;7.440;2022-11-20T00:34:05;1.00;99.90
2977;DHT22;1498;51.500;7.440;2022-11-20T00:36:33;1.00;99.90
2977;DHT22;1498;51.500;7.440;2022-11-20T00:38:58;1.10;99.90
2977;DHT22;1498;51.500;7.440;2022-11-20T00:41:25;1.10;99.90
2977;DHT22;1498;51.500;7.440;2022-11-20T00:43:54;1.20;99.90
2977;DHT22;1498;51.500;7.440;2022-11-20T00:46:22;1.20;99.90
2977;DHT22;1498;51.500;7.440;2022-11-20T00:48:48;1.20;99.90
2977;DHT22;1498;51.500;7.440;2022-11-20T00:51:18;1.20;99.90
2977;DHT22;1498;51.500;7.440;2022-11-20T00:53:45;1.30;99.90
2977;DHT22;1498;51.500;7.440;2022-11-20T00:56:13;1.30;99.90
2977;DHT22;1498;51.500;7.440;2022-11-20T00:58:40;1.30;99.90
2977;DHT22;1498;51.500;7.440;2022-11-20T01:01:09;1.40;99.90
2977;DHT22;1498;51.500;7.440;2022-11-20T01:03:37;1.40;99.90
2977;DHT22;1498;51.500;7.440;2022-11-20T01:06:05;1.40;99.90
2977;DHT22;1498;51.500;7.440;2022-11-20T01:08:33;1.40;99.90
2977;DHT22;1498;51.500;7.440;2022-11-20T01:11:04;1.40;99.90
2977;DHT22;1498;51.500;7.440;2022-11-20T01:13:31;1.50;99.90
2977;DHT22;1498;51.500;7.440;2022-11-20T01:16:17;1.50;99.90
2977;DHT22;1498;51.500;7.440;2022-11-20T01:18:46;1.50;99.90
2977;DHT22;1498;51.500;7.440;2022-11-20T01:21:15;1.50;99.90
2977;DHT22;1498;51.500;7.440;2022-11-20T01:23:42;1.60;99.90
2977;DHT22;1498;51.500;7.440;2022-11-20T01:26:11;1.60;99.90
2977;DHT22;1498;51.500;7.440;2022-11-20T01:28:37;1.70;99.90
2977;DHT22;1498;51.500;7.440;2022-11-20T01:31:14;1.70;99.90
2977;DHT22;1498;51.500;7.440;2022-11-20T05:31:18;3.60;99.90
2977;DHT22;1498;51.500;7.440;2022-11-20T05:33:45;3.60;99.90
2977;DHT22;1498;51.500;7.440;2022-11-20T05:36:12;3.60;99.90
2977;DHT22;1498;51.500;7.440;2022-11-20T05:38:38;3.60;99.90
2977;DHT22;1498;51.500;7.440;2022-11-20T05:41:06;3.60;99.90
2977;DHT22;1498;51.500;7.440;2022-11-20T05:43:35;3.70;99.90
2977;DHT22;1498;51.500;7.440;2022-11-20T05:46:01;3.70;99.90
2977;DHT22;1498;51.500;7.440;2022-11-20T05:48:27;3.70;99.90
2977;DHT22;1498;51.500;7.440;2022-11-20T05:50:53;3.60;99.90
2977;DHT22;1498;51.500;7.440;2022-11-20T05:53:18;3.60;99.90
2977;DHT22;1498;51.500;7.440;2022-11-20T05:55:44;3.60;99.90
2977;DHT22;1498;51.500;7.440;2022-11-20T05:58:10;3.60;99.90
2977;DHT22;1498;51.500;7.440;2022-11-20T06:00:35;3.60;99.90
2977;DHT22;1498;51.500;7.440;2022-11-20T06:03:01;3.50;99.90
2977;DHT22;1498;51.500;7.440;2022-11-20T06:05:27;3.60;99.90
2977;DHT22;1498;51.500;7.440;2022-11-20T06:07:52;3.50;99.90
2977;DHT22;1498;51.500;7.440;2022-11-20T06:10:17;3.50;99.90
2977;DHT22;1498;51.500;7.440;2022-11-20T06:12:43;3.50;99.90
2977;DHT22;1498;51.500;7.440;2022-11-20T06:15:09;3.40;99.90
2977;DHT22;1498;51.500;7.440;2022-11-20T06:17:34;3.40;99.90
2977;DHT22;1498;51.500;7.440;2022-11-20T06:20:00;3.30;99.90
2977;DHT22;1498;51.500;7.440;2022-11-20T06:22:26;3.30;99.90
2977;DHT22;1498;51.500;7.440;2022-11-20T06:24:51;3.30;99.90
2977;DHT22;1498;51.500;7.440;2022-11-20T06:27:17;3.30;99.90
2977;DHT22;1498;51.500;7.440;2022-11-20T06:29:42;3.30;99.90
2977;DHT22;1498;51.500;7.440;2022-11-20T06:32:08;3.30;99.90
2977;DHT22;1498;51.500;7.440;2022-11-20T06:34:33;3.30;99.90
2977;DHT22;1498;51.500;7.440;2022-11-20T06:36:59;3.30;99.90
2977;DHT22;1498;51.500;7.440;2022-11-20T06:39:24;3.20;99.90
2977;DHT22;1498;51.500;7.440;2022-11-20T06:41:50;3.20;99.90
2977;DHT22;1498;51.500;7.440;2022-11-20T06:44:15;3.10;99.90
2977;DHT22;1498;51.500;7.440;2022-11-20T06:46:41;3.10;99.90
2977;DHT22;1498;51.500;7.440;2022-11-20T06:49:06;3.10;99.90
2977;DHT22;1498;51.500;7.440;2022-11-20T06:51:32;3.10;99.90
2977;DHT22;1498;51.500;7.440;2022-11-20T06:53:57;3.00;99.90
2977;DHT22;1498;51.500;7.440;2022-11-20T06:56:23;3.00;99.90
2977;DHT22;1498;51.500;7.440;2022-11-20T06:58:48;3.10;99.90
2977;DHT22;1498;51.500;7.440;2022-11-20T07:01:14;3.00;99.90
2977;DHT22;1498;51.500;7.440;2022-11-20T07:03:41;3.00;99.90
2977;DHT22;1498;51.500;7.440;2022-11-20T07:06:08;3.00;99.90
2977;DHT22;1498;51.500;7.440;2022-11-20T07:08:34;2.90;99.90
2977;DHT22;1498;51.500;7.440;2022-11-20T07:11:01;2.80;99.90
2977;DHT22;1498;51.500;7.440;2022-11-20T07:13:28;2.80;99.90
2977;DHT22;1498;51.500;7.440;2022-11-20T07:15:54;2.80;99.90
2977;DHT22;1498;51.500;7.440;2022-11-20T07:18:20;2.80;99.90
2977;DHT22;1498;51.500;7.440;2022-11-20T07:20:46;2.80;99.90
2977;DHT22;1498;51.500;7.440;2022-11-20T07:23:12;2.80;99.90
2977;DHT22;1498;51.500;7.440;2022-11-20T07:25:37;2.80;99.90
2977;DHT22;1498;51.500;7.440;2022-11-20T07:28:03;2.80;99.90
2977;DHT22;1498;51.500;7.440;2022-11-20T07:30:29;2.80;99.90
2977;DHT22;1498;51.500;7.440;2022-11-20T07:32:55;2.80;99.90
2977;DHT22;1498;51.500;7.440;2022-11-20T07:35:22;2.80;99.90
2977;DHT22;1498;51.500;7.440;2022-11-20T07:37:48;2.80;99.90
2977;DHT22;1498;51.500;7.440;2022-11-20T07:40:14;2.80;99.90
2977;DHT22;1498;51.500;7.440;2022-11-20T07:42:54;2.90;99.90
2977;DHT22;1498;51.500;7.440;2022-11-20T07:45:21;2.90;99.90
2977;DHT22;1498;51.500;7.440;2022-11-20T07:47:47;2.90;99.90
2977;DHT22;1498;51.500;7.440;2022-11-20T07:50:13;2.90;99.90
2977;DHT22;1498;51.500;7.440;2022-11-20T07:52:39;2.90;99.90
2977;DHT22;1498;51.500;7.440;2022-11-20T07:55:05;3.00;99.90
2977;DHT22;1498;51.500;7.440;2022-11-20T07:57:31;3.00;99.90
2977;DHT22;1498;51.500;7.440;2022-11-20T07:59:56;3.10;99.90
2977;DHT22;1498;51.500;7.440;2022-11-20T08:02:22;3.10;99.90
2977;DHT22;1498;51.500;7.440;2022-11-20T08:04:47;3.10;99.90
2977;DHT22;1498;51.500;7.440;2022-11-20T08:07:13;3.20;99.90
2977;DHT22;1498;51.500;7.440;2022-11-20T08:09:39;3.20;99.90
2977;DHT22;1498;51.500;7.440;2022-11-20T08:12:04;3.30;99.90
2977;DHT22;1498;51.500;7.440;2022-11-20T08:14:49;3.40;99.90
2977;DHT22;1498;51.500;7.440;2022-11-20T08:17:14;3.60;99.90
2977;DHT22;1498;51.500;7.440;2022-11-20T08:19:40;3.70;99.90
2977;DHT22;1498;51.500;7.440;2022-11-20T08:22:05;3.80;99.90
2977;DHT22;1498;51.500;7.440;2022-11-20T08:24:31;3.80;99.90
2977;DHT22;1498;51.500;7.440;2022-11-20T08:26:59;3.80;99.90
2977;DHT22;1498;51.500;7.440;2022-11-20T08:29:28;3.90;99.90
2977;DHT22;1498;51.500;7.440;2022-11-20T08:31:53;3.90;99.90
2977;DHT22;1498;51.500;7.440;2022-11-20T08:34:19;4.00;99.90
2977;DHT22;1498;51.500;7.440;2022-11-20T08:36:44;4.10;99.90
2977;DHT22;1498;51.500;7.440;2022-11-20T08:39:14;4.10;99.90
2977;DHT22;1498;51.500;7.440;2022-11-20T08:41:39;4.20;99.90
2977;DHT22;1498;51.500;7.440;2022-11-20T08:44:06;4.30;99.90
2977;DHT22;1498;51.500;7.440;2022-11-20T08:46:37;4.40;99.90
2977;DHT22;1498;51.500;7.440;2022-11-20T08:49:08;4.50;99.90
2977;DHT22;1498;51.500;7.440;2022-11-20T08:51:34;4.60;99.90
2977;DHT22;1498;51.500;7.440;2022-11-20T08:54:00;4.70;99.90
2977;DHT22;1498;51.500;7.440;2022-11-20T08:56:25;4.90;99.90
2977;DHT22;1498;51.500;7.440;2022-11-20T08:58:51;5.00;99.90
2977;DHT22;1498;51.500;7.440;2022-11-20T09:01:21;5.00;99.90
2977;DHT22;1498;51.500;7.440;2022-11-20T09:03:47;5.00;99.90
2977;DHT22;1498;51.500;7.440;2022-11-20T09:06:13;5.00;99.90
2977;DHT22;1498;51.500;7.440;2022-11-20T09:08:39;4.90;99.90
2977;DHT22;1498;51.500;7.440;2022-11-20T09:11:05;5.00;99.90
2977;DHT22;1498;51.500;7.440;2022-11-20T09:13:32;5.00;99.90
2977;DHT22;1498;51.500;7.440;2022-11-20T09:16:00;5.10;99.90
2977;DHT22;1498;51.500;7.440;2022-11-20T09:18:27;5.20;99.90
2977;DHT22;1498;51.500;7.440;2022-11-20T09:20:57;5.30;99.90
2977;DHT22;1498;51.500;7.440;2022-11-20T09:23:23;5.40;99.90
2977;DHT22;1498;51.500;7.440;2022-11-20T09:25:49;5.50;99.90
2977;DHT22;1498;51.500;7.440;2022-11-20T09:28:15;5.60;99.90
2977;DHT22;1498;51.500;7.440;2022-11-20T09:30:41;5.70;99.90
2977;DHT22;1498;51.500;7.440;2022-11-20T09:33:07;5.80;99.90
2977;DHT22;1498;51.500;7.440;2022-11-20T09:35:34;5.80;99.90
2977;DHT22;1498;51.500;7.440;2022-11-20T09:38:07;5.90;99.90
2977;DHT22;1498;51.500;7.440;2022-11-20T09:40:35;5.90;99.90
2977;DHT22;1498;51.500;7.440;2022-11-20T09:43:18;6.00;99.90
2977;DHT22;1498;51.500;7.440;2022-11-20T09:48:42;6.10;99.90
2977;DHT22;1498;51.500;7.440;2022-11-20T09:56:28;6.20;99.90
2977;DHT22;1498;51.500;7.440;2022-11-20T09:58:57;6.20;99.90
2977;DHT22;1498;51.500;7.440;2022-11-20T10:01:29;6.30;99.90
2977;DHT22;1498;51.500;7.440;2022-11-20T10:04:16;6.30;99.90
2977;DHT22;1498;51.500;7.440;2022-11-20T10:07:03;6.30;99.90
2977;DHT22;1498;51.500;7.440;2022-11-20T10:09:34;6.40;99.90
2977;DHT22;1498;51.500;7.440;2022-11-20T10:14:39;6.60;99.90
2977;DHT22;1498;51.500;7.440;2022-11-20T10:23:24;6.80;99.90
2977;DHT22;1498;51.500;7.440;2022-11-20T10:25:39;6.80;99.90
2977;DHT22;1498;51.500;7.440;2022-11-20T10:28:19;6.80;99.90
2977;DHT22;1498;51.500;7.440;2022-11-20T10:30:54;6.90;99.90
2977;DHT22;1498;51.500;7.440;2022-11-20T10:33:23;6.70;99.90
2977;DHT22;1498;51.500;7.440;2022-11-20T10:36:05;6.70;99.90
2977;DHT22;1498;51.500;7.440;2022-11-20T10:38:49;6.60;99.90
2977;DHT22;1498;51.500;7.440;2022-11-20T10:41:22;6.60;99.90
2977;DHT22;1498;51.500;7.440;2022-11-20T10:44:09;6.50;99.90
2977;DHT22;1498;51.500;7.440;2022-11-20T10:46:45;6.50;99.90
2977;DHT22;1498;51.500;7.440;2022-11-20T10:49:16;6.40;99.90
2977;DHT22;1498;51.500;7.440;2022-11-20T10:51:56;6.40;99.90
2977;DHT22;1498;51.500;7.440;2022-11-20T10:54:32;6.40;99.90
2977;DHT22;1498;51.500;7.440;2022-11-20T11:00:07;6.50;99.90
2977;DHT22;1498;51.500;7.440;2022-11-20T11:02:50;6.60;99.90
2977;DHT22;1498;51.500;7.440;2022-11-20T11:08:15;6.60;99.90
2977;DHT22;1498;51.500;7.440;2022-11-20T11:13:07;6.50;99.90
2977;DHT22;1498;51.500;7.440;2022-11-20T11:15:44;6.50;99.90
2977;DHT22;1498;51.500;7.440;2022-11-20T11:18:11;6.50;99.90
2977;DHT22;1498;51.500;7.440;2022-11-20T11:20:37;6.50;99.90
2977;DHT22;1498;51.500;7.440;2022-11-20T11:23:03;6.50;99.90
2977;DHT22;1498;51.500;7.440;2022-11-20T11:25:36;6.50;99.90
2977;DHT22;1498;51.500;7.440;2022-11-20T11:28:04;6.50;99.90
2977;DHT22;1498;51.500;7.440;2022-11-20T11:30:42;6.50;99.90
2977;DHT22;1498;51.500;7.440;2022-11-20T11:33:19;6.40;99.90
2977;DHT22;1498;51.500;7.440;2022-11-20T11:35:48;6.40;99.90
2977;DHT22;1498;51.500;7.440;2022-11-20T11:38:16;6.40;99.90
2977;DHT22;1498;51.500;7.440;2022-11-20T11:40:43;6.30;99.90
2977;DHT22;1498;51.500;7.440;2022-11-20T11:43:25;6.30;99.90
2977;DHT22;1498;51.500;7.440;2022-11-20T11:46:32;6.20;99.90
2977;DHT22;1498;51.500;7.440;2022-11-20T11:49:18;6.30;99.90
2977;DHT22;1498;51.500;7.440;2022-11-20T11:52:04;6.30;99.90
2977;DHT22;1498;51.500;7.440;2022-11-20T12:00:10;6.30;99.90
2977;DHT22;1498;51.500;7.440;2022-11-20T12:11:18;6.30;99.90
2977;DHT22;1498;51.500;7.440;2022-11-20T12:14:11;6.50;99.90
2977;DHT22;1498;51.500;7.440;2022-11-20T12:16:40;6.50;99.90
2977;DHT22;1498;51.500;7.440;2022-11-20T12:19:11;6.60;99.90
2977;DHT22;1498;51.500;7.440;2022-11-20T12:21:58;6.70;99.90
2977;DHT22;1498;51.500;7.440;2022-11-20T12:30:22;6.50;99.90
2977;DHT22;1498;51.500;7.440;2022-11-20T12:43:53;6.80;99.90
2977;DHT22;1498;51.500;7.440;2022-11-20T12:46:47;6.90;99.90
2977;DHT22;1498;51.500;7.440;2022-11-20T12:52:17;6.90;99.90
2977;DHT22;1498;51.500;7.440;2022-11-20T12:55:00;6.80;99.90
2977;DHT22;1498;51.500;7.440;2022-11-20T13:00:26;6.70;99.90
2977;DHT22;1498;51.500;7.440;2022-11-20T13:03:13;6.60;99.90
2977;DHT22;1498;51.500;7.440;2022-11-20T13:08:34;6.70;99.90
2977;DHT22;1498;51.500;7.440;2022-11-20T13:11:18;6.70;99.90
2977;DHT22;1498;51.500;7.440;2022-11-20T13:16:48;6.60;99.90
2977;DHT22;1498;51.500;7.440;2022-11-20T13:19:17;6.60;99.90
2977;DHT22;1498;51.500;7.440;2022-11-20T13:21:45;6.60;99.90
2977;DHT22;1498;51.500;7.440;2022-11-20T13:24:29;6.70;99.90
2977;DHT22;1498;51.500;7.440;2022-11-20T13:27:16;6.70;99.90
2977;DHT22;1498;51.500;7.440;2022-11-20T13:29:45;6.60;99.90
2977;DHT22;1498;51.500;7.440;2022-11-20T13:32:18;6.50;99.90
2977;DHT22;1498;51.500;7.440;2022-11-20T13:34:53;6.50;99.90
2977;DHT22;1498;51.500;7.440;2022-11-20T13:39:52;6.50;99.90
2977;DHT22;1498;51.500;7.440;2022-11-20T13:42:20;6.60;99.90
2977;DHT22;1498;51.500;7.440;2022-11-20T13:44:53;6.60;99.90
2977;DHT22;1498;51.500;7.440;2022-11-20T13:47:26;6.50;99.90
2977;DHT22;1498;51.500;7.440;2022-11-20T13:49:54;6.50;99.90
2977;DHT22;1498;51.500;7.440;2022-11-20T13:57:59;6.20;99.90
2977;DHT22;1498;51.500;7.440;2022-11-20T14:00:29;6.20;99.90
2977;DHT22;1498;51.500;7.440;2022-11-20T14:06:03;6.20;99.90
2977;DHT22;1498;51.500;7.440;2022-11-20T14:08:41;6.30;99.90
2977;DHT22;1498;51.500;7.440;2022-11-20T14:11:20;6.40;99.90
2977;DHT22;1498;51.500;7.440;2022-11-20T14:14:15;6.40;99.90
2977;DHT22;1498;51.500;7.440;2022-11-20T14:16:41;6.40;99.90
2977;DHT22;1498;51.500;7.440;2022-11-20T14:21:53;6.40;99.90
2977;DHT22;1498;51.500;7.440;2022-11-20T14:24:21;6.40;99.90
2977;DHT22;1498;51.500;7.440;2022-11-20T14:26:47;6.40;99.90
2977;DHT22;1498;51.500;7.440;2022-11-20T14:29:16;6.50;99.90
2977;DHT22;1498;51.500;7.440;2022-11-20T14:31:43;6.50;99.90
2977;DHT22;1498;51.500;7.440;2022-11-20T14:34:18;6.50;99.90
2977;DHT22;1498;51.500;7.440;2022-11-20T14:36:45;6.40;99.90
2977;DHT22;1498;51.500;7.440;2022-11-20T14:39:12;6.50;99.90
2977;DHT22;1498;51.500;7.440;2022-11-20T14:41:51;6.50;99.90
2977;DHT22;1498;51.500;7.440;2022-11-20T14:44:17;6.50;99.90
2977;DHT22;1498;51.500;7.440;2022-11-20T14:46:43;6.50;99.90
2977;DHT22;1498;51.500;7.440;2022-11-20T14:49:10;6.40;99.90
2977;DHT22;1498;51.500;7.440;2022-11-20T14:51:38;6.40;99.90
2977;DHT22;1498;51.500;7.440;2022-11-20T14:54:20;6.40;99.90
2977;DHT22;1498;51.500;7.440;2022-11-20T14:57:00;6.40;99.90
2977;DHT22;1498;51.500;7.440;2022-11-20T14:59:28;6.50;99.90
2977;DHT22;1498;51.500;7.440;2022-11-20T15:02:00;6.40;99.90
2977;DHT22;1498;51.500;7.440;2022-11-20T15:04:26;6.40;99.90
2977;DHT22;1498;51.500;7.440;2022-11-20T15:06:54;6.40;99.90
2977;DHT22;1498;51.500;7.440;2022-11-20T15:09:20;6.40;99.90
2977;DHT22;1498;51.500;7.440;2022-11-20T15:11:57;6.30;99.90
2977;DHT22;1498;51.500;7.440;2022-11-20T15:14:25;6.40;99.90
2977;DHT22;1498;51.500;7.440;2022-11-20T15:16:51;6.40;99.90
2977;DHT22;1498;51.500;7.440;2022-11-20T15:19:20;6.40;99.90
2977;DHT22;1498;51.500;7.440;2022-11-20T15:21:46;6.30;99.90
2977;DHT22;1498;51.500;7.440;2022-11-20T15:24:11;6.20;99.90
2977;DHT22;1498;51.500;7.440;2022-11-20T15:26:38;6.30;99.90
2977;DHT22;1498;51.500;7.440;2022-11-20T15:29:09;6.20;99.90
2977;DHT22;1498;51.500;7.440;2022-11-20T15:31:36;6.20;99.90
2977;DHT22;1498;51.500;7.440;2022-11-20T15:34:04;6.20;99.90
2977;DHT22;1498;51.500;7.440;2022-11-20T15:36:32;6.20;99.90
2977;DHT22;1498;51.500;7.440;2022-11-20T15:38:58;6.20;99.90
2977;DHT22;1498;51.500;7.440;2022-11-20T15:41:23;6.20;99.90
2977;DHT22;1498;51.500;7.440;2022-11-20T15:43:49;6.10;99.90
2977;DHT22;1498;51.500;7.440;2022-11-20T15:46:17;6.00;99.90
2977;DHT22;1498;51.500;7.440;2022-11-20T15:48:51;6.00;99.90
2977;DHT22;1498;51.500;7.440;2022-11-20T15:51:27;6.00;99.90
2977;DHT22;1498;51.500;7.440;2022-11-20T15:53:55;6.00;99.90
2977;DHT22;1498;51.500;7.440;2022-11-20T15:56:20;6.00;99.90
2977;DHT22;1498;51.500;7.440;2022-11-20T15:58:46;6.00;99.90
2977;DHT22;1498;51.500;7.440;2022-11-20T16:01:14;6.00;99.90
2977;DHT22;1498;51.500;7.440;2022-11-20T16:03:40;6.00;99.90
2977;DHT22;1498;51.500;7.440;2022-11-20T16:06:06;6.00;99.90
2977;DHT22;1498;51.500;7.440;2022-11-20T16:08:31;5.90;99.90
2977;DHT22;1498;51.500;7.440;2022-11-20T16:10:57;5.80;99.90
2977;DHT22;1498;51.500;7.440;2022-11-20T16:13:22;5.90;99.90
2977;DHT22;1498;51.500;7.440;2022-11-20T16:16:28;6.00;99.90
2977;DHT22;1498;51.500;7.440;2022-11-20T16:18:55;5.90;99.90
2977;DHT22;1498;51.500;7.440;2022-11-20T16:21:21;5.80;99.90
2977;DHT22;1498;51.500;7.440;2022-11-20T16:23:52;5.90;99.90
2977;DHT22;1498;51.500;7.440;2022-11-20T16:26:18;5.90;99.90
2977;DHT22;1498;51.500;7.440;2022-11-20T16:28:44;6.00;99.90
2977;DHT22;1498;51.500;7.440;2022-11-20T16:31:12;5.90;99.90
2977;DHT22;1498;51.500;7.440;2022-11-20T16:33:37;5.90;99.90
2977;DHT22;1498;51.500;7.440;2022-11-20T16:36:10;6.00;99.90
2977;DHT22;1498;51.500;7.440;2022-11-20T16:38:36;6.00;99.90
2977;DHT22;1498;51.500;7.440;2022-11-20T16:41:02;6.00;99.90
2977;DHT22;1498;51.500;7.440;2022-11-20T16:43:28;6.00;99.90
2977;DHT22;1498;51.500;7.440;2022-11-20T16:45:53;6.00;99.90
2977;DHT22;1498;51.500;7.440;2022-11-20T16:48:19;6.00;99.90
2977;DHT22;1498;51.500;7.440;2022-11-20T16:50:49;6.00;99.90
2977;DHT22;1498;51.500;7.440;2022-11-20T16:53:16;6.00;99.90
2977;DHT22;1498;51.500;7.440;2022-11-20T16:55:42;6.00;99.90
2977;DHT22;1498;51.500;7.440;2022-11-20T16:58:07;6.00;99.90
2977;DHT22;1498;51.500;7.440;2022-11-20T17:00:36;5.90;99.90
2977;DHT22;1498;51.500;7.440;2022-11-20T17:03:02;5.90;99.90
2977;DHT22;1498;51.500;7.440;2022-11-20T17:05:32;5.90;99.90
2977;DHT22;1498;51.500;7.440;2022-11-20T17:07:57;5.90;99.90
2977;DHT22;1498;51.500;7.440;2022-11-20T17:10:23;5.90;99.90
2977;DHT22;1498;51.500;7.440;2022-11-20T17:12:48;5.90;99.90
2977;DHT22;1498;51.500;7.440;2022-11-20T17:15:14;5.90;99.90
2977;DHT22;1498;51.500;7.440;2022-11-20T17:17:39;5.90;99.90
2977;DHT22;1498;51.500;7.440;2022-11-20T17:20:05;5.90;99.90
2977;DHT22;1498;51.500;7.440;2022-11-20T17:22:31;5.90;99.90
2977;DHT22;1498;51.500;7.440;2022-11-20T17:24:57;5.90;99.90
2977;DHT22;1498;51.500;7.440;2022-11-20T17:27:22;5.90;99.90
2977;DHT22;1498;51.500;7.440;2022-11-20T17:29:48;5.90;99.90
2977;DHT22;1498;51.500;7.440;2022-11-20T17:32:14;5.90;99.90
2977;DHT22;1498;51.500;7.440;2022-11-20T17:34:39;5.90;99.90
2977;DHT22;1498;51.500;7.440;2022-11-20T17:37:05;6.00;99.90
2977;DHT22;1498;51.500;7.440;2022-11-20T17:39:31;6.00;99.90
2977;DHT22;1498;51.500;7.440;2022-11-20T17:41:56;6.00;99.90
2977;DHT22;1498;51.500;7.440;2022-11-20T17:44:40;6.00;99.90
2977;DHT22;1498;51.500;7.440;2022-11-20T17:47:07;6.00;99.90
2977;DHT22;1498;51.500;7.440;2022-11-20T17:49:32;6.00;99.90
2977;DHT22;1498;51.500;7.440;2022-11-20T17:51:58;6.10;99.90
2977;DHT22;1498;51.500;7.440;2022-11-20T17:54:23;6.10;99.90
2977;DHT22;1498;51.500;7.440;2022-11-20T17:56:49;6.10;99.90
2977;DHT22;1498;51.500;7.440;2022-11-20T17:59:33;6.10;99.90
2977;DHT22;1498;51.500;7.440;2022-11-20T18:01:59;6.10;99.90
2977;DHT22;1498;51.500;7.440;2022-11-20T18:04:25;6.10;99.90
2977;DHT22;1498;51.500;7.440;2022-11-20T18:06:50;6.20;99.90
2977;DHT22;1498;51.500;7.440;2022-11-20T18:09:16;6.30;99.90
2977;DHT22;1498;51.500;7.440;2022-11-20T18:11:42;6.50;99.90
2977;DHT22;1498;51.500;7.440;2022-11-20T18:14:11;6.60;99.90
2977;DHT22;1498;51.500;7.440;2022-11-20T18:16:58;6.50;99.90
2977;DHT22;1498;51.500;7.440;2022-11-20T18:19:26;6.60;99.90
2977;DHT22;1498;51.500;7.440;2022-11-20T18:21:52;6.70;99.90
2977;DHT22;1498;51.500;7.440;2022-11-20T18:24:18;6.60;99.90
2977;DHT22;1498;51.500;7.440;2022-11-20T18:26:44;6.70;99.90
2977;DHT22;1498;51.500;7.440;2022-11-20T18:29:10;6.70;99.90
2977;DHT22;1498;51.500;7.440;2022-11-20T18:31:36;6.80;99.90
2977;DHT22;1498;51.500;7.440;2022-11-20T18:34:01;6.80;99.90
2977;DHT22;1498;51.500;7.440;2022-11-20T18:36:29;6.80;99.90
2977;DHT22;1498;51.500;7.440;2022-11-20T18:38:56;6.80;99.90
2977;DHT22;1498;51.500;7.440;2022-11-20T18:41:26;6.80;99.90
2977;DHT22;1498;51.500;7.440;2022-11-20T18:44:13;6.80;99.90
2977;DHT22;1498;51.500;7.440;2022-11-20T18:46:57;6.80;99.90
2977;DHT22;1498;51.500;7.440;2022-11-20T18:49:23;6.80;99.90
2977;DHT22;1498;51.500;7.440;2022-11-20T18:51:48;6.70;99.90
2977;DHT22;1498;51.500;7.440;2022-11-20T18:54:14;6.70;99.90
2977;DHT22;1498;51.500;7.440;2022-11-20T18:56:39;6.70;99.90
2977;DHT22;1498;51.500;7.440;2022-11-20T18:59:12;6.70;99.90
2977;DHT22;1498;51.500;7.440;2022-11-20T19:01:38;6.80;99.90
2977;DHT22;1498;51.500;7.440;2022-11-20T19:04:10;6.80;99.90
2977;DHT22;1498;51.500;7.440;2022-11-20T19:06:39;6.80;99.90
2977;DHT22;1498;51.500;7.440;2022-11-20T19:09:06;6.80;99.90
2977;DHT22;1498;51.500;7.440;2022-11-20T19:11:35;6.80;99.90
2977;DHT22;1498;51.500;7.440;2022-11-20T19:14:01;6.80;99.90
2977;DHT22;1498;51.500;7.440;2022-11-20T19:16:27;6.70;99.90
2977;DHT22;1498;51.500;7.440;2022-11-20T19:18:53;6.80;99.90
2977;DHT22;1498;51.500;7.440;2022-11-20T19:21:21;6.80;99.90
2977;DHT22;1498;51.500;7.440;2022-11-20T19:23:51;6.80;99.90
2977;DHT22;1498;51.500;7.440;2022-11-20T19:26:18;6.80;99.90
2977;DHT22;1498;51.500;7.440;2022-11-20T19:28:44;6.70;99.90
2977;DHT22;1498;51.500;7.440;2022-11-20T19:31:18;6.70;99.90
2977;DHT22;1498;51.500;7.440;2022-11-20T19:33:44;6.70;99.90
2977;DHT22;1498;51.500;7.440;2022-11-20T19:36:16;6.70;99.90
2977;DHT22;1498;51.500;7.440;2022-11-20T19:38:44;6.60;99.90
2977;DHT22;1498;51.500;7.440;2022-11-20T19:41:15;6.70;99.90
2977;DHT22;1498;51.500;7.440;2022-11-20T19:43:41;6.70;99.90
2977;DHT22;1498;51.500;7.440;2022-11-20T19:46:07;6.90;99.90
2977;DHT22;1498;51.500;7.440;2022-11-20T19:48:34;6.90;99.90
2977;DHT22;1498;51.500;7.440;2022-11-20T19:51:13;6.80;99.90
2977;DHT22;1498;51.500;7.440;2022-11-20T19:53:39;7.00;99.90
2977;DHT22;1498;51.500;7.440;2022-11-20T19:56:05;7.10;99.90
2977;DHT22;1498;51.500;7.440;2022-11-20T19:58:34;7.10;99.90
2977;DHT22;1498;51.500;7.440;2022-11-20T20:01:07;7.10;99.90
2977;DHT22;1498;51.500;7.440;2022-11-20T20:03:33;7.10;99.90
2977;DHT22;1498;51.500;7.440;2022-11-20T20:06:03;7.10;99.90
2977;DHT22;1498;51.500;7.440;2022-11-20T20:08:29;7.10;99.90
2977;DHT22;1498;51.500;7.440;2022-11-20T20:10:55;7.10;99.90
2977;DHT22;1498;51.500;7.440;2022-11-20T20:13:20;7.00;99.90
2977;DHT22;1498;51.500;7.440;2022-11-20T20:15:46;7.10;99.90
2977;DHT22;1498;51.500;7.440;2022-11-20T20:18:11;7.00;99.90
2977;DHT22;1498;51.500;7.440;2022-11-20T20:20:37;7.00;99.90
2977;DHT22;1498;51.500;7.440;2022-11-20T20:23:02;7.00;99.90
2977;DHT22;1498;51.500;7.440;2022-11-20T20:25:32;7.00;99.90
2977;DHT22;1498;51.500;7.440;2022-11-20T20:27:57;7.00;99.90
2977;DHT22;1498;51.500;7.440;2022-11-20T20:30:23;7.00;99.90
2977;DHT22;1498;51.500;7.440;2022-11-20T20:32:48;7.00;99.90
2977;DHT22;1498;51.500;7.440;2022-11-20T20:35:14;7.10;99.90
2977;DHT22;1498;51.500;7.440;2022-11-20T20:37:39;7.10;99.90
2977;DHT22;1498;51.500;7.440;2022-11-20T20:40:06;7.10;99.90
2977;DHT22;1498;51.500;7.440;2022-11-20T20:42:32;7.10;99.90
2977;DHT22;1498;51.500;7.440;2022-11-20T20:44:57;7.20;99.90
2977;DHT22;1498;51.500;7.440;2022-11-20T20:47:33;7.20;99.90
2977;DHT22;1498;51.500;7.440;2022-11-20T20:49:59;7.10;99.90
2977;DHT22;1498;51.500;7.440;2022-11-20T20:52:25;7.10;99.90
2977;DHT22;1498;51.500;7.440;2022-11-20T20:54:54;7.00;99.90
2977;DHT22;1498;51.500;7.440;2022-11-20T20:57:23;7.00;99.90
2977;DHT22;1498;51.500;7.440;2022-11-20T20:59:50;6.90;99.90
2977;DHT22;1498;51.500;7.440;2022-11-20T21:02:17;6.90;99.90
2977;DHT22;1498;51.500;7.440;2022-11-20T21:04:43;6.90;99.90
2977;DHT22;1498;51.500;7.440;2022-11-20T21:07:09;6.90;99.90
2977;DHT22;1498;51.500;7.440;2022-11-20T21:09:35;6.80;99.90
2977;DHT22;1498;51.500;7.440;2022-11-20T21:12:00;6.80;99.90
2977;DHT22;1498;51.500;7.440;2022-11-20T21:14:26;6.80;99.90
2977;DHT22;1498;51.500;7.440;2022-11-20T21:16:51;6.80;99.90
2977;DHT22;1498;51.500;7.440;2022-11-20T21:19:17;6.80;99.90
2977;DHT22;1498;51.500;7.440;2022-11-20T21:21:43;6.80;99.90
2977;DHT22;1498;51.500;7.440;2022-11-20T21:24:29;6.80;99.90
2977;DHT22;1498;51.500;7.440;2022-11-20T21:26:55;6.80;99.90
2977;DHT22;1498;51.500;7.440;2022-11-20T21:29:23;6.80;99.90
2977;DHT22;1498;51.500;7.440;2022-11-20T21:31:49;6.90;99.90
2977;DHT22;1498;51.500;7.440;2022-11-20T21:34:16;6.90;99.90
2977;DHT22;1498;51.500;7.440;2022-11-20T21:36:42;6.90;99.90
2977;DHT22;1498;51.500;7.440;2022-11-20T21:39:09;6.90;99.90
2977;DHT22;1498;51.500;7.440;2022-11-20T21:41:35;6.80;99.90
2977;DHT22;1498;51.500;7.440;2022-11-20T21:44:01;6.80;99.90
2977;DHT22;1498;51.500;7.440;2022-11-20T21:46:28;6.80;99.90